sensor_id;sensor_type;location;lat;lon;timestamp;P1;durP1;ratioP1;P2;durP2;ratioP2
78838;SDS011;68405;47.190;27.558;2023-04-24T00:01:01;8.00;;;7.10;;
78838;SDS011;68405;47.190;27.558;2023-04-24T00:03:30;9.30;;;6.80;;
78838;SDS011;68405;47.190;27.558;2023-04-24T00:05:59;11.10;;;8.20;;
78838;SDS011;68405;47.190;27.558;2023-04-24T00:08:29;8.60;;;7.10;;
78838;SDS011;68405;47.190;27.558;2023-04-24T00:10:58;11.00;;;7.30;;
78838;SDS011;68405;47.190;27.558;2023-04-24T00:13:27;10.00;;;7.60;;
78838;SDS011;68405;47.190;27.558;2023-04-24T00:15:57;7.30;;;6.50;;
78838;SDS011;68405;47.190;27.558;2023-04-24T00:18:26;9.00;;;6.40;;
78838;SDS011;68405;47.190;27.558;2023-04-24T00:20:55;9.90;;;7.70;;
78838;SDS011;68405;47.190;27.558;2023-04-24T00:23:24;9.30;;;7.50;;
78838;SDS011;68405;47.190;27.558;2023-04-24T00:25:53;8.70;;;7.50;;
78838;SDS011;68405;47.190;27.558;2023-04-24T00:28:22;8.90;;;7.30;;
78838;SDS011;68405;47.190;27.558;2023-04-24T00:30:51;9.40;;;7.70;;
78838;SDS011;68405;47.190;27.558;2023-04-24T00:33:21;10.70;;;7.10;;
78838;SDS011;68405;47.190;27.558;2023-04-24T00:35:50;9.00;;;7.30;;
78838;SDS011;68405;47.190;27.558;2023-04-24T00:38:19;9.90;;;7.60;;
78838;SDS011;68405;47.190;27.558;2023-04-24T00:40:49;8.40;;;7.50;;
78838;SDS011;68405;47.190;27.558;2023-04-24T00:43:18;9.60;;;7.40;;
78838;SDS011;68405;47.190;27.558;2023-04-24T00:45:47;12.10;;;7.50;;
78838;SDS011;68405;47.190;27.558;2023-04-24T00:48:16;8.10;;;6.80;;
78838;SDS011;68405;47.190;27.558;2023-04-24T00:50:45;9.40;;;7.20;;
78838;SDS011;68405;47.190;27.558;2023-04-24T00:53:15;10.30;;;7.70;;
78838;SDS011;68405;47.190;27.558;2023-04-24T00:55:44;7.80;;;6.90;;
78838;SDS011;68405;47.190;27.558;2023-04-24T00:58:13;9.10;;;7.20;;
78838;SDS011;68405;47.190;27.558;2023-04-24T01:00:42;10.30;;;7.30;;
78838;SDS011;68405;47.190;27.558;2023-04-24T01:03:13;8.70;;;7.50;;
78838;SDS011;68405;47.190;27.558;2023-04-24T01:05:43;8.00;;;6.90;;
78838;SDS011;68405;47.190;27.558;2023-04-24T01:08:12;9.30;;;7.60;;
78838;SDS011;68405;47.190;27.558;2023-04-24T01:10:42;10.10;;;6.50;;
78838;SDS011;68405;47.190;27.558;2023-04-24T01:13:14;8.40;;;7.50;;
78838;SDS011;68405;47.190;27.558;2023-04-24T01:15:43;9.70;;;7.10;;
78838;SDS011;68405;47.190;27.558;2023-04-24T01:18:13;10.20;;;7.90;;
78838;SDS011;68405;47.190;27.558;2023-04-24T01:20:42;9.10;;;7.20;;
78838;SDS011;68405;47.190;27.558;2023-04-24T01:23:12;12.40;;;7.60;;
78838;SDS011;68405;47.190;27.558;2023-04-24T01:25:42;9.40;;;7.80;;
78838;SDS011;68405;47.190;27.558;2023-04-24T01:28:11;9.90;;;8.20;;
78838;SDS011;68405;47.190;27.558;2023-04-24T01:30:40;10.00;;;7.70;;
78838;SDS011;68405;47.190;27.558;2023-04-24T01:33:10;10.40;;;7.70;;
78838;SDS011;68405;47.190;27.558;2023-04-24T01:35:39;9.50;;;7.50;;
78838;SDS011;68405;47.190;27.558;2023-04-24T01:38:08;9.60;;;8.10;;
78838;SDS011;68405;47.190;27.558;2023-04-24T01:40:38;9.50;;;8.30;;
78838;SDS011;68405;47.190;27.558;2023-04-24T01:43:06;10.60;;;8.00;;
78838;SDS011;68405;47.190;27.558;2023-04-24T01:45:35;10.20;;;8.10;;
78838;SDS011;68405;47.190;27.558;2023-04-24T01:48:04;12.50;;;8.30;;
78838;SDS011;68405;47.190;27.558;2023-04-24T01:50:34;10.10;;;7.90;;
78838;SDS011;68405;47.190;27.558;2023-04-24T01:53:03;10.20;;;8.10;;
78838;SDS011;68405;47.190;27.558;2023-04-24T01:55:32;10.00;;;8.40;;
78838;SDS011;68405;47.190;27.558;2023-04-24T01:58:02;8.70;;;7.80;;
78838;SDS011;68405;47.190;27.558;2023-04-24T02:00:31;9.20;;;8.20;;
78838;SDS011;68405;47.190;27.558;2023-04-24T02:03:00;9.60;;;7.20;;
78838;SDS011;68405;47.190;27.558;2023-04-24T02:05:29;10.00;;;8.50;;
78838;SDS011;68405;47.190;27.558;2023-04-24T02:07:58;11.70;;;8.50;;
78838;SDS011;68405;47.190;27.558;2023-04-24T02:10:27;11.50;;;8.40;;
78838;SDS011;68405;47.190;27.558;2023-04-24T02:12:56;11.30;;;8.20;;
78838;SDS011;68405;47.190;27.558;2023-04-24T02:15:26;10.80;;;8.50;;
78838;SDS011;68405;47.190;27.558;2023-04-24T02:17:55;11.30;;;8.90;;
78838;SDS011;68405;47.190;27.558;2023-04-24T02:20:24;10.80;;;8.40;;
78838;SDS011;68405;47.190;27.558;2023-04-24T02:22:54;10.60;;;8.90;;
78838;SDS011;68405;47.190;27.558;2023-04-24T02:25:23;11.30;;;8.60;;
78838;SDS011;68405;47.190;27.558;2023-04-24T02:27:52;10.60;;;8.50;;
78838;SDS011;68405;47.190;27.558;2023-04-24T02:30:21;10.60;;;8.70;;
78838;SDS011;68405;47.190;27.558;2023-04-24T02:32:50;9.90;;;8.30;;
78838;SDS011;68405;47.190;27.558;2023-04-24T02:35:19;10.40;;;7.50;;
78838;SDS011;68405;47.190;27.558;2023-04-24T02:37:48;11.60;;;8.40;;
78838;SDS011;68405;47.190;27.558;2023-04-24T02:40:18;10.30;;;7.80;;
78838;SDS011;68405;47.190;27.558;2023-04-24T02:42:47;9.70;;;8.20;;
78838;SDS011;68405;47.190;27.558;2023-04-24T02:45:16;10.10;;;8.30;;
78838;SDS011;68405;47.190;27.558;2023-04-24T02:47:45;12.20;;;9.50;;
78838;SDS011;68405;47.190;27.558;2023-04-24T02:50:14;10.10;;;8.30;;
78838;SDS011;68405;47.190;27.558;2023-04-24T02:52:43;11.00;;;8.80;;
78838;SDS011;68405;47.190;27.558;2023-04-24T02:55:12;11.00;;;9.50;;
78838;SDS011;68405;47.190;27.558;2023-04-24T02:57:41;12.90;;;9.70;;
78838;SDS011;68405;47.190;27.558;2023-04-24T03:00:12;12.10;;;9.60;;
78838;SDS011;68405;47.190;27.558;2023-04-24T03:02:42;11.00;;;8.90;;
78838;SDS011;68405;47.190;27.558;2023-04-24T03:05:11;10.70;;;9.40;;
78838;SDS011;68405;47.190;27.558;2023-04-24T03:07:40;12.50;;;9.80;;
78838;SDS011;68405;47.190;27.558;2023-04-24T03:10:10;12.10;;;10.20;;
78838;SDS011;68405;47.190;27.558;2023-04-24T03:12:39;13.50;;;10.20;;
78838;SDS011;68405;47.190;27.558;2023-04-24T03:15:09;10.00;;;8.90;;
78838;SDS011;68405;47.190;27.558;2023-04-24T03:17:38;12.30;;;9.50;;
78838;SDS011;68405;47.190;27.558;2023-04-24T03:20:09;13.10;;;10.30;;
78838;SDS011;68405;47.190;27.558;2023-04-24T03:22:38;12.10;;;9.50;;
78838;SDS011;68405;47.190;27.558;2023-04-24T03:25:08;10.90;;;9.30;;
78838;SDS011;68405;47.190;27.558;2023-04-24T03:27:38;12.70;;;9.70;;
78838;SDS011;68405;47.190;27.558;2023-04-24T03:30:08;11.00;;;9.30;;
78838;SDS011;68405;47.190;27.558;2023-04-24T03:32:38;14.10;;;9.20;;
78838;SDS011;68405;47.190;27.558;2023-04-24T03:35:07;10.00;;;9.00;;
78838;SDS011;68405;47.190;27.558;2023-04-24T03:37:37;11.70;;;9.30;;
78838;SDS011;68405;47.190;27.558;2023-04-24T03:40:07;13.70;;;9.50;;
78838;SDS011;68405;47.190;27.558;2023-04-24T03:42:37;11.80;;;9.50;;
78838;SDS011;68405;47.190;27.558;2023-04-24T03:45:08;11.80;;;9.10;;
78838;SDS011;68405;47.190;27.558;2023-04-24T03:47:37;12.20;;;9.40;;
78838;SDS011;68405;47.190;27.558;2023-04-24T03:50:08;13.20;;;9.20;;
78838;SDS011;68405;47.190;27.558;2023-04-24T03:52:38;13.30;;;9.10;;
78838;SDS011;68405;47.190;27.558;2023-04-24T03:55:08;12.20;;;8.30;;
78838;SDS011;68405;47.190;27.558;2023-04-24T03:57:40;11.20;;;8.80;;
78838;SDS011;68405;47.190;27.558;2023-04-24T04:00:10;14.40;;;8.90;;
78838;SDS011;68405;47.190;27.558;2023-04-24T04:02:41;9.70;;;8.70;;
78838;SDS011;68405;47.190;27.558;2023-04-24T04:05:10;10.00;;;8.00;;
78838;SDS011;68405;47.190;27.558;2023-04-24T04:07:40;10.00;;;7.90;;
78838;SDS011;68405;47.190;27.558;2023-04-24T04:10:10;10.00;;;7.70;;
78838;SDS011;68405;47.190;27.558;2023-04-24T04:12:39;11.50;;;7.60;;
78838;SDS011;68405;47.190;27.558;2023-04-24T04:15:09;9.60;;;6.80;;
78838;SDS011;68405;47.190;27.558;2023-04-24T04:17:39;8.30;;;6.80;;
78838;SDS011;68405;47.190;27.558;2023-04-24T04:20:09;10.20;;;6.70;;
78838;SDS011;68405;47.190;27.558;2023-04-24T04:22:39;8.30;;;6.40;;
78838;SDS011;68405;47.190;27.558;2023-04-24T04:25:09;14.50;;;7.70;;
78838;SDS011;68405;47.190;27.558;2023-04-24T04:27:40;15.70;;;6.80;;
78838;SDS011;68405;47.190;27.558;2023-04-24T04:30:10;14.50;;;6.90;;
78838;SDS011;68405;47.190;27.558;2023-04-24T04:32:40;8.40;;;5.70;;
78838;SDS011;68405;47.190;27.558;2023-04-24T04:35:09;10.10;;;5.30;;
78838;SDS011;68405;47.190;27.558;2023-04-24T04:37:39;9.70;;;5.50;;
78838;SDS011;68405;47.190;27.558;2023-04-24T04:40:09;9.70;;;5.40;;
78838;SDS011;68405;47.190;27.558;2023-04-24T04:42:39;10.30;;;5.30;;
78838;SDS011;68405;47.190;27.558;2023-04-24T04:45:09;7.20;;;4.90;;
78838;SDS011;68405;47.190;27.558;2023-04-24T04:47:39;9.10;;;5.50;;
78838;SDS011;68405;47.190;27.558;2023-04-24T04:50:08;6.70;;;4.70;;
78838;SDS011;68405;47.190;27.558;2023-04-24T04:52:38;7.20;;;4.50;;
78838;SDS011;68405;47.190;27.558;2023-04-24T04:55:08;6.50;;;5.20;;
78838;SDS011;68405;47.190;27.558;2023-04-24T04:57:40;8.40;;;5.10;;
78838;SDS011;68405;47.190;27.558;2023-04-24T05:00:10;8.80;;;4.90;;
78838;SDS011;68405;47.190;27.558;2023-04-24T05:02:40;7.50;;;4.90;;
78838;SDS011;68405;47.190;27.558;2023-04-24T05:05:09;9.10;;;4.70;;
78838;SDS011;68405;47.190;27.558;2023-04-24T05:07:38;7.30;;;4.60;;
78838;SDS011;68405;47.190;27.558;2023-04-24T05:10:08;10.70;;;4.60;;
78838;SDS011;68405;47.190;27.558;2023-04-24T05:12:38;7.20;;;4.60;;
78838;SDS011;68405;47.190;27.558;2023-04-24T05:15:08;7.40;;;4.90;;
78838;SDS011;68405;47.190;27.558;2023-04-24T05:17:38;7.30;;;4.80;;
78838;SDS011;68405;47.190;27.558;2023-04-24T05:20:08;5.30;;;4.20;;
78838;SDS011;68405;47.190;27.558;2023-04-24T05:22:37;7.60;;;5.40;;
78838;SDS011;68405;47.190;27.558;2023-04-24T05:25:07;7.90;;;5.10;;
78838;SDS011;68405;47.190;27.558;2023-04-24T05:27:36;8.40;;;4.40;;
78838;SDS011;68405;47.190;27.558;2023-04-24T05:30:07;7.60;;;5.00;;
78838;SDS011;68405;47.190;27.558;2023-04-24T05:32:37;7.30;;;4.60;;
78838;SDS011;68405;47.190;27.558;2023-04-24T05:35:07;6.40;;;4.50;;
78838;SDS011;68405;47.190;27.558;2023-04-24T05:37:37;9.80;;;5.30;;
78838;SDS011;68405;47.190;27.558;2023-04-24T05:40:08;7.90;;;4.70;;
78838;SDS011;68405;47.190;27.558;2023-04-24T05:42:38;10.90;;;4.70;;
78838;SDS011;68405;47.190;27.558;2023-04-24T05:45:08;8.60;;;5.00;;
78838;SDS011;68405;47.190;27.558;2023-04-24T05:47:43;7.60;;;4.60;;
78838;SDS011;68405;47.190;27.558;2023-04-24T05:50:13;7.90;;;4.90;;
78838;SDS011;68405;47.190;27.558;2023-04-24T05:52:42;7.60;;;4.20;;
78838;SDS011;68405;47.190;27.558;2023-04-24T05:55:12;6.00;;;4.20;;
78838;SDS011;68405;47.190;27.558;2023-04-24T05:57:44;8.00;;;5.30;;
78838;SDS011;68405;47.190;27.558;2023-04-24T06:00:14;10.20;;;5.30;;
78838;SDS011;68405;47.190;27.558;2023-04-24T06:02:46;9.30;;;5.50;;
78838;SDS011;68405;47.190;27.558;2023-04-24T06:05:16;11.70;;;4.80;;
78838;SDS011;68405;47.190;27.558;2023-04-24T06:07:46;6.10;;;4.20;;
78838;SDS011;68405;47.190;27.558;2023-04-24T06:10:16;5.10;;;4.40;;
78838;SDS011;68405;47.190;27.558;2023-04-24T06:12:46;4.70;;;4.10;;
78838;SDS011;68405;47.190;27.558;2023-04-24T06:15:16;8.50;;;4.50;;
78838;SDS011;68405;47.190;27.558;2023-04-24T06:17:45;8.40;;;4.70;;
78838;SDS011;68405;47.190;27.558;2023-04-24T06:20:15;6.90;;;4.40;;
78838;SDS011;68405;47.190;27.558;2023-04-24T06:22:44;7.80;;;4.50;;
78838;SDS011;68405;47.190;27.558;2023-04-24T06:25:17;6.70;;;4.60;;
78838;SDS011;68405;47.190;27.558;2023-04-24T06:27:47;5.80;;;4.90;;
78838;SDS011;68405;47.190;27.558;2023-04-24T06:30:18;5.50;;;4.60;;
78838;SDS011;68405;47.190;27.558;2023-04-24T06:32:48;9.10;;;4.80;;
78838;SDS011;68405;47.190;27.558;2023-04-24T06:35:18;6.10;;;5.20;;
78838;SDS011;68405;47.190;27.558;2023-04-24T06:37:48;6.70;;;4.70;;
78838;SDS011;68405;47.190;27.558;2023-04-24T06:40:17;5.30;;;4.00;;
78838;SDS011;68405;47.190;27.558;2023-04-24T06:42:46;8.40;;;4.80;;
78838;SDS011;68405;47.190;27.558;2023-04-24T06:45:16;9.60;;;4.80;;
78838;SDS011;68405;47.190;27.558;2023-04-24T06:47:46;7.00;;;4.80;;
78838;SDS011;68405;47.190;27.558;2023-04-24T06:50:15;6.80;;;4.60;;
78838;SDS011;68405;47.190;27.558;2023-04-24T06:52:44;7.70;;;4.90;;
78838;SDS011;68405;47.190;27.558;2023-04-24T06:55:14;9.30;;;5.10;;
78838;SDS011;68405;47.190;27.558;2023-04-24T06:57:44;8.10;;;4.70;;
78838;SDS011;68405;47.190;27.558;2023-04-24T07:00:14;6.70;;;4.60;;
78838;SDS011;68405;47.190;27.558;2023-04-24T07:02:43;6.10;;;4.30;;
78838;SDS011;68405;47.190;27.558;2023-04-24T07:05:13;5.00;;;4.00;;
78838;SDS011;68405;47.190;27.558;2023-04-24T07:07:42;8.30;;;4.50;;
78838;SDS011;68405;47.190;27.558;2023-04-24T07:10:12;7.10;;;4.80;;
78838;SDS011;68405;47.190;27.558;2023-04-24T07:12:42;8.10;;;4.60;;
78838;SDS011;68405;47.190;27.558;2023-04-24T07:15:11;8.60;;;4.20;;
78838;SDS011;68405;47.190;27.558;2023-04-24T07:17:41;8.40;;;5.30;;
78838;SDS011;68405;47.190;27.558;2023-04-24T07:20:11;8.60;;;4.00;;
78838;SDS011;68405;47.190;27.558;2023-04-24T07:22:41;6.30;;;3.50;;
78838;SDS011;68405;47.190;27.558;2023-04-24T07:25:11;7.40;;;4.40;;
78838;SDS011;68405;47.190;27.558;2023-04-24T07:27:41;5.90;;;3.60;;
78838;SDS011;68405;47.190;27.558;2023-04-24T07:30:11;6.70;;;4.20;;
78838;SDS011;68405;47.190;27.558;2023-04-24T07:32:41;6.30;;;4.00;;
78838;SDS011;68405;47.190;27.558;2023-04-24T07:35:10;7.90;;;4.30;;
78838;SDS011;68405;47.190;27.558;2023-04-24T07:37:40;4.50;;;3.60;;
78838;SDS011;68405;47.190;27.558;2023-04-24T07:40:13;6.50;;;3.20;;
78838;SDS011;68405;47.190;27.558;2023-04-24T07:42:43;6.90;;;3.40;;
78838;SDS011;68405;47.190;27.558;2023-04-24T07:45:12;5.70;;;3.40;;
78838;SDS011;68405;47.190;27.558;2023-04-24T07:47:42;7.80;;;4.00;;
78838;SDS011;68405;47.190;27.558;2023-04-24T07:50:12;5.20;;;3.90;;
78838;SDS011;68405;47.190;27.558;2023-04-24T07:52:41;6.70;;;3.60;;
78838;SDS011;68405;47.190;27.558;2023-04-24T07:55:11;7.20;;;3.80;;
78838;SDS011;68405;47.190;27.558;2023-04-24T07:57:40;6.60;;;3.50;;
78838;SDS011;68405;47.190;27.558;2023-04-24T08:00:10;6.50;;;3.40;;
78838;SDS011;68405;47.190;27.558;2023-04-24T08:02:41;12.40;;;4.20;;
78838;SDS011;68405;47.190;27.558;2023-04-24T08:05:10;9.20;;;4.40;;
78838;SDS011;68405;47.190;27.558;2023-04-24T08:07:40;5.70;;;3.70;;
78838;SDS011;68405;47.190;27.558;2023-04-24T08:10:10;7.10;;;3.50;;
78838;SDS011;68405;47.190;27.558;2023-04-24T08:12:40;5.90;;;3.20;;
78838;SDS011;68405;47.190;27.558;2023-04-24T08:15:10;9.10;;;3.90;;
78838;SDS011;68405;47.190;27.558;2023-04-24T08:17:39;8.70;;;3.40;;
78838;SDS011;68405;47.190;27.558;2023-04-24T08:20:10;6.70;;;3.40;;
78838;SDS011;68405;47.190;27.558;2023-04-24T08:22:41;3.50;;;2.80;;
78838;SDS011;68405;47.190;27.558;2023-04-24T08:25:11;6.00;;;3.40;;
78838;SDS011;68405;47.190;27.558;2023-04-24T08:27:41;6.10;;;3.40;;
78838;SDS011;68405;47.190;27.558;2023-04-24T08:30:11;5.10;;;3.10;;
78838;SDS011;68405;47.190;27.558;2023-04-24T08:32:40;3.30;;;2.80;;
78838;SDS011;68405;47.190;27.558;2023-04-24T08:35:10;4.40;;;3.40;;
78838;SDS011;68405;47.190;27.558;2023-04-24T08:37:39;7.20;;;3.90;;
78838;SDS011;68405;47.190;27.558;2023-04-24T08:40:11;8.90;;;3.60;;
78838;SDS011;68405;47.190;27.558;2023-04-24T08:42:42;7.80;;;3.30;;
78838;SDS011;68405;47.190;27.558;2023-04-24T08:45:12;6.40;;;3.40;;
78838;SDS011;68405;47.190;27.558;2023-04-24T08:47:42;5.70;;;3.10;;
78838;SDS011;68405;47.190;27.558;2023-04-24T08:50:12;7.30;;;3.20;;
78838;SDS011;68405;47.190;27.558;2023-04-24T08:52:42;4.10;;;3.40;;
78838;SDS011;68405;47.190;27.558;2023-04-24T08:55:12;5.30;;;3.00;;
78838;SDS011;68405;47.190;27.558;2023-04-24T08:57:43;5.20;;;3.30;;
78838;SDS011;68405;47.190;27.558;2023-04-24T09:00:16;6.80;;;3.00;;
78838;SDS011;68405;47.190;27.558;2023-04-24T09:02:47;6.20;;;3.30;;
78838;SDS011;68405;47.190;27.558;2023-04-24T09:05:18;6.30;;;2.80;;
78838;SDS011;68405;47.190;27.558;2023-04-24T09:07:49;9.80;;;3.00;;
78838;SDS011;68405;47.190;27.558;2023-04-24T09:10:21;6.50;;;3.00;;
78838;SDS011;68405;47.190;27.558;2023-04-24T09:12:52;8.80;;;3.70;;
78838;SDS011;68405;47.190;27.558;2023-04-24T09:15:22;5.40;;;2.80;;
78838;SDS011;68405;47.190;27.558;2023-04-24T09:17:52;9.00;;;3.20;;
78838;SDS011;68405;47.190;27.558;2023-04-24T09:20:22;6.40;;;3.00;;
78838;SDS011;68405;47.190;27.558;2023-04-24T09:22:54;5.90;;;3.10;;
78838;SDS011;68405;47.190;27.558;2023-04-24T09:25:26;5.80;;;3.10;;
78838;SDS011;68405;47.190;27.558;2023-04-24T09:28:01;4.90;;;3.20;;
78838;SDS011;68405;47.190;27.558;2023-04-24T09:30:33;6.20;;;3.20;;
78838;SDS011;68405;47.190;27.558;2023-04-24T09:33:12;8.70;;;2.90;;
78838;SDS011;68405;47.190;27.558;2023-04-24T09:35:42;4.40;;;2.70;;
78838;SDS011;68405;47.190;27.558;2023-04-24T09:38:17;6.80;;;3.10;;
78838;SDS011;68405;47.190;27.558;2023-04-24T09:40:48;5.00;;;3.30;;
78838;SDS011;68405;47.190;27.558;2023-04-24T09:43:18;7.10;;;3.30;;
78838;SDS011;68405;47.190;27.558;2023-04-24T09:45:47;7.40;;;3.20;;
78838;SDS011;68405;47.190;27.558;2023-04-24T09:48:16;3.80;;;2.90;;
78838;SDS011;68405;47.190;27.558;2023-04-24T09:50:46;5.60;;;3.00;;
78838;SDS011;68405;47.190;27.558;2023-04-24T09:53:16;5.70;;;3.30;;
78838;SDS011;68405;47.190;27.558;2023-04-24T09:55:53;5.60;;;3.00;;
78838;SDS011;68405;47.190;27.558;2023-04-24T09:58:26;5.80;;;3.20;;
78838;SDS011;68405;47.190;27.558;2023-04-24T10:00:56;8.40;;;3.20;;
78838;SDS011;68405;47.190;27.558;2023-04-24T10:03:25;6.50;;;3.30;;
78838;SDS011;68405;47.190;27.558;2023-04-24T10:05:59;5.20;;;3.50;;
78838;SDS011;68405;47.190;27.558;2023-04-24T10:08:34;6.70;;;4.10;;
78838;SDS011;68405;47.190;27.558;2023-04-24T10:11:04;6.40;;;3.50;;
78838;SDS011;68405;47.190;27.558;2023-04-24T10:13:35;6.70;;;3.30;;
78838;SDS011;68405;47.190;27.558;2023-04-24T10:16:05;6.50;;;3.20;;
78838;SDS011;68405;47.190;27.558;2023-04-24T10:18:36;7.60;;;4.00;;
78838;SDS011;68405;47.190;27.558;2023-04-24T10:21:07;8.70;;;3.80;;
78838;SDS011;68405;47.190;27.558;2023-04-24T10:23:36;8.20;;;4.00;;
78838;SDS011;68405;47.190;27.558;2023-04-24T10:26:07;7.30;;;3.90;;
78838;SDS011;68405;47.190;27.558;2023-04-24T10:28:39;5.90;;;3.70;;
78838;SDS011;68405;47.190;27.558;2023-04-24T10:31:09;7.60;;;3.30;;
78838;SDS011;68405;47.190;27.558;2023-04-24T10:33:39;6.90;;;3.80;;
78838;SDS011;68405;47.190;27.558;2023-04-24T10:36:09;6.40;;;3.30;;
78838;SDS011;68405;47.190;27.558;2023-04-24T10:38:41;9.70;;;4.10;;
78838;SDS011;68405;47.190;27.558;2023-04-24T10:41:13;5.70;;;3.80;;
78838;SDS011;68405;47.190;27.558;2023-04-24T10:43:47;8.90;;;4.50;;
78838;SDS011;68405;47.190;27.558;2023-04-24T10:46:33;5.40;;;3.30;;
78838;SDS011;68405;47.190;27.558;2023-04-24T10:49:04;5.40;;;3.50;;
78838;SDS011;68405;47.190;27.558;2023-04-24T10:51:48;4.40;;;3.30;;
78838;SDS011;68405;47.190;27.558;2023-04-24T10:54:23;6.60;;;3.00;;
78838;SDS011;68405;47.190;27.558;2023-04-24T10:56:56;4.60;;;3.20;;
78838;SDS011;68405;47.190;27.558;2023-04-24T11:00:12;4.70;;;3.50;;
78838;SDS011;68405;47.190;27.558;2023-04-24T11:02:45;7.00;;;3.20;;
78838;SDS011;68405;47.190;27.558;2023-04-24T11:05:22;5.40;;;3.30;;
78838;SDS011;68405;47.190;27.558;2023-04-24T11:08:15;5.40;;;3.20;;
78838;SDS011;68405;47.190;27.558;2023-04-24T11:10:55;6.60;;;3.80;;
78838;SDS011;68405;47.190;27.558;2023-04-24T11:13:26;7.50;;;3.40;;
78838;SDS011;68405;47.190;27.558;2023-04-24T11:16:16;4.80;;;3.50;;
78838;SDS011;68405;47.190;27.558;2023-04-24T11:19:01;4.60;;;2.90;;
78838;SDS011;68405;47.190;27.558;2023-04-24T11:21:36;3.50;;;3.20;;
78838;SDS011;68405;47.190;27.558;2023-04-24T11:24:25;8.60;;;3.20;;
78838;SDS011;68405;47.190;27.558;2023-04-24T11:27:00;8.10;;;3.70;;
78838;SDS011;68405;47.190;27.558;2023-04-24T11:29:41;7.50;;;3.70;;
78838;SDS011;68405;47.190;27.558;2023-04-24T11:32:16;6.90;;;3.50;;
78838;SDS011;68405;47.190;27.558;2023-04-24T11:34:50;8.80;;;3.20;;
78838;SDS011;68405;47.190;27.558;2023-04-24T11:37:21;6.10;;;3.40;;
78838;SDS011;68405;47.190;27.558;2023-04-24T11:39:53;5.20;;;3.30;;
78838;SDS011;68405;47.190;27.558;2023-04-24T11:42:23;5.90;;;3.40;;
78838;SDS011;68405;47.190;27.558;2023-04-24T11:44:53;6.70;;;3.30;;
78838;SDS011;68405;47.190;27.558;2023-04-24T11:47:29;5.30;;;2.70;;
78838;SDS011;68405;47.190;27.558;2023-04-24T11:50:01;7.70;;;3.90;;
78838;SDS011;68405;47.190;27.558;2023-04-24T11:52:31;6.10;;;3.50;;
78838;SDS011;68405;47.190;27.558;2023-04-24T11:57:34;6.90;;;3.30;;
78838;SDS011;68405;47.190;27.558;2023-04-24T12:00:05;5.00;;;3.20;;
78838;SDS011;68405;47.190;27.558;2023-04-24T12:02:43;5.70;;;3.70;;
78838;SDS011;68405;47.190;27.558;2023-04-24T12:05:20;5.80;;;3.10;;
78838;SDS011;68405;47.190;27.558;2023-04-24T12:07:50;6.50;;;3.50;;
78838;SDS011;68405;47.190;27.558;2023-04-24T12:10:21;5.80;;;3.70;;
78838;SDS011;68405;47.190;27.558;2023-04-24T12:12:51;6.40;;;3.30;;
78838;SDS011;68405;47.190;27.558;2023-04-24T12:15:21;7.10;;;3.20;;
78838;SDS011;68405;47.190;27.558;2023-04-24T12:17:52;8.50;;;2.80;;
78838;SDS011;68405;47.190;27.558;2023-04-24T12:20:24;7.30;;;3.90;;
78838;SDS011;68405;47.190;27.558;2023-04-24T12:22:56;9.10;;;3.60;;
78838;SDS011;68405;47.190;27.558;2023-04-24T12:25:27;5.30;;;3.30;;
78838;SDS011;68405;47.190;27.558;2023-04-24T12:28:09;6.50;;;3.30;;
78838;SDS011;68405;47.190;27.558;2023-04-24T12:30:41;5.00;;;3.10;;
78838;SDS011;68405;47.190;27.558;2023-04-24T12:33:11;6.90;;;3.10;;
78838;SDS011;68405;47.190;27.558;2023-04-24T12:35:45;4.20;;;2.70;;
78838;SDS011;68405;47.190;27.558;2023-04-24T12:38:25;4.40;;;2.90;;
78838;SDS011;68405;47.190;27.558;2023-04-24T12:41:03;5.70;;;3.30;;
78838;SDS011;68405;47.190;27.558;2023-04-24T12:43:34;4.90;;;3.10;;
78838;SDS011;68405;47.190;27.558;2023-04-24T12:46:04;5.20;;;3.10;;
78838;SDS011;68405;47.190;27.558;2023-04-24T12:48:34;6.70;;;3.30;;
78838;SDS011;68405;47.190;27.558;2023-04-24T12:51:04;6.20;;;3.20;;
78838;SDS011;68405;47.190;27.558;2023-04-24T12:53:33;4.50;;;3.10;;
78838;SDS011;68405;47.190;27.558;2023-04-24T12:56:04;4.90;;;3.20;;
78838;SDS011;68405;47.190;27.558;2023-04-24T12:58:33;4.90;;;3.40;;
78838;SDS011;68405;47.190;27.558;2023-04-24T13:01:03;8.00;;;3.10;;
78838;SDS011;68405;47.190;27.558;2023-04-24T13:03:33;4.50;;;3.00;;
78838;SDS011;68405;47.190;27.558;2023-04-24T13:06:03;4.10;;;2.60;;
78838;SDS011;68405;47.190;27.558;2023-04-24T13:08:32;5.60;;;3.50;;
78838;SDS011;68405;47.190;27.558;2023-04-24T13:11:02;6.60;;;2.90;;
78838;SDS011;68405;47.190;27.558;2023-04-24T13:13:31;5.90;;;3.40;;
78838;SDS011;68405;47.190;27.558;2023-04-24T13:16:00;6.60;;;3.80;;
78838;SDS011;68405;47.190;27.558;2023-04-24T13:18:29;5.70;;;3.30;;
78838;SDS011;68405;47.190;27.558;2023-04-24T13:20:59;7.10;;;3.10;;
78838;SDS011;68405;47.190;27.558;2023-04-24T13:23:28;5.50;;;3.60;;
78838;SDS011;68405;47.190;27.558;2023-04-24T13:25:57;5.70;;;2.80;;
78838;SDS011;68405;47.190;27.558;2023-04-24T13:28:28;4.90;;;3.50;;
78838;SDS011;68405;47.190;27.558;2023-04-24T13:30:57;7.00;;;3.60;;
78838;SDS011;68405;47.190;27.558;2023-04-24T13:33:26;5.80;;;3.50;;
78838;SDS011;68405;47.190;27.558;2023-04-24T13:35:55;6.30;;;3.00;;
78838;SDS011;68405;47.190;27.558;2023-04-24T13:38:25;9.90;;;4.70;;
78838;SDS011;68405;47.190;27.558;2023-04-24T13:40:54;5.10;;;2.80;;
78838;SDS011;68405;47.190;27.558;2023-04-24T13:43:24;12.60;;;3.20;;
78838;SDS011;68405;47.190;27.558;2023-04-24T13:45:53;4.00;;;2.80;;
78838;SDS011;68405;47.190;27.558;2023-04-24T13:48:22;4.40;;;3.10;;
78838;SDS011;68405;47.190;27.558;2023-04-24T13:50:51;6.10;;;3.30;;
78838;SDS011;68405;47.190;27.558;2023-04-24T13:53:20;5.60;;;3.60;;
78838;SDS011;68405;47.190;27.558;2023-04-24T13:55:49;5.60;;;2.40;;
78838;SDS011;68405;47.190;27.558;2023-04-24T13:58:19;4.30;;;2.90;;
78838;SDS011;68405;47.190;27.558;2023-04-24T14:00:48;7.60;;;3.30;;
78838;SDS011;68405;47.190;27.558;2023-04-24T14:03:17;4.70;;;3.00;;
78838;SDS011;68405;47.190;27.558;2023-04-24T14:05:46;6.50;;;3.50;;
78838;SDS011;68405;47.190;27.558;2023-04-24T14:08:15;8.00;;;3.00;;
78838;SDS011;68405;47.190;27.558;2023-04-24T14:10:44;4.60;;;3.10;;
78838;SDS011;68405;47.190;27.558;2023-04-24T14:13:13;6.30;;;3.10;;
78838;SDS011;68405;47.190;27.558;2023-04-24T14:15:43;5.50;;;3.10;;
78838;SDS011;68405;47.190;27.558;2023-04-24T14:18:13;5.20;;;3.00;;
78838;SDS011;68405;47.190;27.558;2023-04-24T14:20:42;5.20;;;2.70;;
78838;SDS011;68405;47.190;27.558;2023-04-24T14:23:11;4.30;;;2.60;;
78838;SDS011;68405;47.190;27.558;2023-04-24T14:25:40;8.50;;;3.40;;
78838;SDS011;68405;47.190;27.558;2023-04-24T14:28:09;5.10;;;3.30;;
78838;SDS011;68405;47.190;27.558;2023-04-24T14:30:38;5.70;;;3.50;;
78838;SDS011;68405;47.190;27.558;2023-04-24T14:33:08;3.80;;;2.90;;
78838;SDS011;68405;47.190;27.558;2023-04-24T14:35:37;7.10;;;3.00;;
78838;SDS011;68405;47.190;27.558;2023-04-24T14:38:06;5.10;;;2.90;;
78838;SDS011;68405;47.190;27.558;2023-04-24T14:40:36;7.40;;;3.70;;
78838;SDS011;68405;47.190;27.558;2023-04-24T14:43:05;6.60;;;3.20;;
78838;SDS011;68405;47.190;27.558;2023-04-24T14:45:34;6.80;;;3.00;;
78838;SDS011;68405;47.190;27.558;2023-04-24T14:48:04;5.60;;;3.10;;
78838;SDS011;68405;47.190;27.558;2023-04-24T14:50:33;6.50;;;2.90;;
78838;SDS011;68405;47.190;27.558;2023-04-24T14:53:03;5.70;;;3.30;;